Norbank — PGIS — position and weather

sailwx.info

Track history (hours):
 
Tides and Currents Weather Stations Pressure Air Temp Water Temp Dewpoint Dewpoint Depression Visibility Wind Speed Wind Dir Waves Ship Positions

Norbank

Operator: P & O Ferries

Last reported at 2017-Feb-24 00:32 UTC. Time now 2017-Feb-24 03:39 UTC.
Position N 53°34' W 003°53'.

Length 167 m; draft 5.9 m.

Type: Ship (hazmat cat A). MMSI: 246213000.

Date/timePositionNaut miles runAvg speedWind from/ knotsBaromVisibWave heightAir tempDewpointWater temp
2017-Feb-24 00:32N 53°34' W 003°53'1818.5
2017-Feb-23 23:33N 53°33' W 003°22'1413.6
2017-Feb-23 22:33N 53°27' W 003°01'0 0.4
2017-Feb-23 21:31N 53°27' W 003°01'0 0.0
2017-Feb-23 20:33N 53°27' W 003°01'0 0.0
2017-Feb-23 19:33N 53°27' W 003°01'0 0.0
2017-Feb-23 18:33N 53°27' W 003°01'0 0.0
2017-Feb-23 17:33N 53°27' W 003°01'1 0.6
2017-Feb-23 16:33N 53°27' W 003°01'1212.1
2017-Feb-23 15:33N 53°31' W 003°20'1918.7
2017-Feb-23 14:33N 53°32' W 003°52'6 0.4
2017-Feb-22 23:33N 53°34' W 003°43'2019.6
2017-Feb-22 22:33N 53°32' W 003°10'7 6.9
2017-Feb-22 21:33N 53°27' W 003°01'0 0.2
2017-Feb-22 20:31N 53°27' W 003°01'0 0.0
2017-Feb-22 19:31N 53°27' W 003°01'0 0.0
2017-Feb-22 18:31N 53°27' W 003°01'0 0.0
2017-Feb-22 17:30N 53°27' W 003°01'0 0.2
2017-Feb-22 16:33N 53°27' W 003°01'5 4.8
2017-Feb-22 15:34N 53°31' W 003°07'2019.4
2017-Feb-22 14:33N 53°31' W 003°39'2 0.2
2017-Feb-21 23:26N 53°34' W 003°39'1618.3
2017-Feb-21 22:33N 53°31' W 003°12'8 7.7
2017-Feb-21 21:33N 53°27' W 003°01'0 0.4
2017-Feb-21 20:31N 53°27' W 003°01'0 0.0
2017-Feb-21 19:31N 53°27' W 003°01'0 0.0
2017-Feb-21 18:33N 53°27' W 003°01'0 0.0
2017-Feb-21 17:33N 53°27' W 003°01'0 0.5
2017-Feb-21 16:33N 53°27' W 003°01'5 5.3
2017-Feb-21 15:33N 53°31' W 003°07'2019.7
2017-Feb-21 14:33N 53°31' W 003°40'3 0.2
2017-Feb-20 23:14N 53°34' W 003°41'1319.2
2017-Feb-20 22:33N 53°32' W 003°19'1212.0
2017-Feb-20 21:33N 53°27' W 003°01'0 0.4
2017-Feb-20 20:32N 53°27' W 003°01'0 0.0
2017-Feb-20 19:31N 53°27' W 003°01'0 0.0
2017-Feb-20 18:28N 53°27' W 003°01'0 0.0
2017-Feb-20 17:30N 53°27' W 003°01'0 0.0
2017-Feb-20 16:30N 53°27' W 003°01'0 0.0
2017-Feb-20 15:33N 53°27' W 003°01'0 0.0
2017-Feb-20 14:32N 53°27' W 003°01'0 0.0
2017-Feb-20 13:29N 53°27' W 003°01'0 0.0
2017-Feb-20 12:31N 53°27' W 003°01'0 0.0
2017-Feb-20 11:31N 53°27' W 003°01'0 0.0
2017-Feb-20 10:26N 53°27' W 003°01'0 0.0
2017-Feb-20 09:31N 53°27' W 003°01'0 0.0
2017-Feb-20 08:31N 53°27' W 003°01'0 0.0
2017-Feb-20 07:33N 53°27' W 003°01'0 0.0
2017-Feb-20 06:33N 53°27' W 003°01'0 0.5
2017-Feb-20 05:33N 53°27' W 003°01'8 7.9
2017-Feb-20 04:34N 53°31' W 003°12'1818.2
2017-Feb-20 03:33N 53°31' W 003°43'1614.3
2017-Feb-20 02:27N 53°32' W 004°10'14 0.5
2017-Feb-18 23:20N 53°34' W 003°47'1316.4
2017-Feb-18 22:33N 53°33' W 003°25'1514.9
2017-Feb-18 21:33N 53°27' W 003°02'1 0.6
2017-Feb-18 20:34N 53°27' W 003°01'0 0.0
2017-Feb-18 19:31N 53°27' W 003°01'0 0.0
2017-Feb-18 18:33N 53°27' W 003°01'0 0.0
2017-Feb-18 17:33N 53°27' W 003°01'0 0.3
2017-Feb-18 16:33N 53°27' W 003°01'7 6.6
2017-Feb-18 15:33N 53°32' W 003°09'1919.4
2017-Feb-18 14:33N 53°31' W 003°42'3 0.2
2017-Feb-17 23:33N 53°34' W 003°39'1717.5
2017-Feb-17 22:33N 53°32' W 003°10'7 7.1
2017-Feb-17 21:33N 53°27' W 003°01'0 0.4
2017-Feb-17 20:32N 53°27' W 003°01'0 0.0
2017-Feb-17 19:31N 53°27' W 003°01'0 0.0
2017-Feb-17 18:31N 53°27' W 003°01'0 0.0
2017-Feb-17 17:33N 53°27' W 003°01'0 0.4
2017-Feb-17 16:26N 53°27' W 003°01'7 7.6
2017-Feb-17 15:33N 53°32' W 003°09'1918.6
2017-Feb-17 14:33N 53°31' W 003°40'3 0.2
2017-Feb-16 23:32N 53°34' W 003°40'1717.0
2017-Feb-16 22:33N 53°31' W 003°13'8 8.1
2017-Feb-16 21:33N 53°27' W 003°01'0 0.4
2017-Feb-16 20:28N 53°27' W 003°01'0 0.0
2017-Feb-16 19:25N 53°27' W 003°01'0 0.0
2017-Feb-16 18:33N 53°27' W 003°01'0 0.0
2017-Feb-16 17:30N 53°27' W 003°01'0 0.4
2017-Feb-16 16:29N 53°27' W 003°01'7 7.4
2017-Feb-16 15:33N 53°32' W 003°10'1717.5
2017-Feb-16 14:33N 53°31' W 003°39'1717.1
2017-Feb-16 13:33N 53°34' W 004°07'11 0.8
2017-Feb-15 23:30N 53°35' W 003°48'1617.1
2017-Feb-15 22:33N 53°33' W 003°21'1313.2
2017-Feb-15 21:33N 53°27' W 003°01'1 0.7
2017-Feb-15 20:33N 53°27' W 003°01'0 0.0
2017-Feb-15 19:32N 53°27' W 003°01'0 0.0
2017-Feb-15 18:26N 53°27' W 003°01'0 0.0
2017-Feb-15 17:26N 53°27' W 003°01'0 0.0
2017-Feb-15 16:33N 53°27' W 003°01'4 3.8
2017-Feb-15 15:33N 53°30' W 003°06'1515.2
2017-Feb-15 14:33N 53°31' W 003°31'1615.4
2017-Feb-15 13:33N 53°33' W 003°57'11 0.8
2017-Feb-14 23:31N 53°34' W 003°39'1717.2
2017-Feb-14 22:33N 53°32' W 003°11'7 7.4
2017-Feb-14 21:33N 53°27' W 003°01'0 0.4
2017-Feb-14 20:33N 53°27' W 003°01'0 0.0
2017-Feb-14 19:32N 53°27' W 003°01'0 0.0
2017-Feb-14 18:32N 53°27' W 003°01'0 0.0
2017-Feb-14 17:31N 53°27' W 003°01'0 0.4
2017-Feb-14 16:31N 53°27' W 003°01'7 7.0
2017-Feb-14 15:33N 53°32' W 003°09'1717.2
2017-Feb-14 14:33N 53°31' W 003°38'1817.7
2017-Feb-14 13:34N 53°34' W 004°07'  
Track history (hours):
 
Tides and Currents Weather Stations Pressure Air Temp Water Temp Dewpoint Dewpoint Depression Visibility Wind Speed Wind Dir Waves Ship Positions

Norbank

Operator: P & O Ferries

Last reported at 2017-Feb-24 00:32 UTC. Time now 2017-Feb-24 03:39 UTC.
Position N 53°34' W 003°53'.

Length 167 m; draft 5.9 m.

Type: Ship (hazmat cat A). MMSI: 246213000.

Date/timePositionNaut miles runAvg speedWind from/ knotsBaromVisibWave heightAir tempDewpointWater temp
2017-Feb-24 00:32N 53°34' W 003°53'1818.5
2017-Feb-23 23:33N 53°33' W 003°22'1413.6
2017-Feb-23 22:33N 53°27' W 003°01'0 0.4
2017-Feb-23 21:31N 53°27' W 003°01'0 0.0
2017-Feb-23 20:33N 53°27' W 003°01'0 0.0
2017-Feb-23 19:33N 53°27' W 003°01'0 0.0
2017-Feb-23 18:33N 53°27' W 003°01'0 0.0
2017-Feb-23 17:33N 53°27' W 003°01'1 0.6
2017-Feb-23 16:33N 53°27' W 003°01'1212.1
2017-Feb-23 15:33N 53°31' W 003°20'1918.7
2017-Feb-23 14:33N 53°32' W 003°52'6 0.4
2017-Feb-22 23:33N 53°34' W 003°43'2019.6
2017-Feb-22 22:33N 53°32' W 003°10'7 6.9
2017-Feb-22 21:33N 53°27' W 003°01'0 0.2
2017-Feb-22 20:31N 53°27' W 003°01'0 0.0
2017-Feb-22 19:31N 53°27' W 003°01'0 0.0
2017-Feb-22 18:31N 53°27' W 003°01'0 0.0
2017-Feb-22 17:30N 53°27' W 003°01'0 0.2
2017-Feb-22 16:33N 53°27' W 003°01'5 4.8
2017-Feb-22 15:34N 53°31' W 003°07'2019.4
2017-Feb-22 14:33N 53°31' W 003°39'2 0.2
2017-Feb-21 23:26N 53°34' W 003°39'1618.3
2017-Feb-21 22:33N 53°31' W 003°12'8 7.7
2017-Feb-21 21:33N 53°27' W 003°01'0 0.4
2017-Feb-21 20:31N 53°27' W 003°01'0 0.0
2017-Feb-21 19:31N 53°27' W 003°01'0 0.0
2017-Feb-21 18:33N 53°27' W 003°01'0 0.0
2017-Feb-21 17:33N 53°27' W 003°01'0 0.5
2017-Feb-21 16:33N 53°27' W 003°01'5 5.3
2017-Feb-21 15:33N 53°31' W 003°07'2019.7
2017-Feb-21 14:33N 53°31' W 003°40'3 0.2
2017-Feb-20 23:14N 53°34' W 003°41'1319.2
2017-Feb-20 22:33N 53°32' W 003°19'1212.0
2017-Feb-20 21:33N 53°27' W 003°01'0 0.4
2017-Feb-20 20:32N 53°27' W 003°01'0 0.0
2017-Feb-20 19:31N 53°27' W 003°01'0 0.0
2017-Feb-20 18:28N 53°27' W 003°01'0 0.0
2017-Feb-20 17:30N 53°27' W 003°01'0 0.0
2017-Feb-20 16:30N 53°27' W 003°01'0 0.0
2017-Feb-20 15:33N 53°27' W 003°01'0 0.0
2017-Feb-20 14:32N 53°27' W 003°01'0 0.0
2017-Feb-20 13:29N 53°27' W 003°01'0 0.0
2017-Feb-20 12:31N 53°27' W 003°01'0 0.0
2017-Feb-20 11:31N 53°27' W 003°01'0 0.0
2017-Feb-20 10:26N 53°27' W 003°01'0 0.0
2017-Feb-20 09:31N 53°27' W 003°01'0 0.0
2017-Feb-20 08:31N 53°27' W 003°01'0 0.0
2017-Feb-20 07:33N 53°27' W 003°01'0 0.0
2017-Feb-20 06:33N 53°27' W 003°01'0 0.5
2017-Feb-20 05:33N 53°27' W 003°01'8 7.9
2017-Feb-20 04:34N 53°31' W 003°12'1818.2
2017-Feb-20 03:33N 53°31' W 003°43'1614.3
2017-Feb-20 02:27N 53°32' W 004°10'14 0.5
2017-Feb-18 23:20N 53°34' W 003°47'1316.4
2017-Feb-18 22:33N 53°33' W 003°25'1514.9
2017-Feb-18 21:33N 53°27' W 003°02'1 0.6
2017-Feb-18 20:34N 53°27' W 003°01'0 0.0
2017-Feb-18 19:31N 53°27' W 003°01'0 0.0
2017-Feb-18 18:33N 53°27' W 003°01'0 0.0
2017-Feb-18 17:33N 53°27' W 003°01'0 0.3
2017-Feb-18 16:33N 53°27' W 003°01'7 6.6
2017-Feb-18 15:33N 53°32' W 003°09'1919.4
2017-Feb-18 14:33N 53°31' W 003°42'3 0.2
2017-Feb-17 23:33N 53°34' W 003°39'1717.5
2017-Feb-17 22:33N 53°32' W 003°10'7 7.1
2017-Feb-17 21:33N 53°27' W 003°01'0 0.4
2017-Feb-17 20:32N 53°27' W 003°01'0 0.0
2017-Feb-17 19:31N 53°27' W 003°01'0 0.0
2017-Feb-17 18:31N 53°27' W 003°01'0 0.0
2017-Feb-17 17:33N 53°27' W 003°01'0 0.4
2017-Feb-17 16:26N 53°27' W 003°01'7 7.6
2017-Feb-17 15:33N 53°32' W 003°09'1918.6
2017-Feb-17 14:33N 53°31' W 003°40'3 0.2
2017-Feb-16 23:32N 53°34' W 003°40'1717.0
2017-Feb-16 22:33N 53°31' W 003°13'8 8.1
2017-Feb-16 21:33N 53°27' W 003°01'0 0.4
2017-Feb-16 20:28N 53°27' W 003°01'0 0.0
2017-Feb-16 19:25N 53°27' W 003°01'0 0.0
2017-Feb-16 18:33N 53°27' W 003°01'0 0.0
2017-Feb-16 17:30N 53°27' W 003°01'0 0.4
2017-Feb-16 16:29N 53°27' W 003°01'7 7.4
2017-Feb-16 15:33N 53°32' W 003°10'1717.5
2017-Feb-16 14:33N 53°31' W 003°39'1717.1
2017-Feb-16 13:33N 53°34' W 004°07'11 0.8
2017-Feb-15 23:30N 53°35' W 003°48'1617.1
2017-Feb-15 22:33N 53°33' W 003°21'1313.2
2017-Feb-15 21:33N 53°27' W 003°01'1 0.7
2017-Feb-15 20:33N 53°27' W 003°01'0 0.0
2017-Feb-15 19:32N 53°27' W 003°01'0 0.0
2017-Feb-15 18:26N 53°27' W 003°01'0 0.0
2017-Feb-15 17:26N 53°27' W 003°01'0 0.0
2017-Feb-15 16:33N 53°27' W 003°01'4 3.8
2017-Feb-15 15:33N 53°30' W 003°06'1515.2
2017-Feb-15 14:33N 53°31' W 003°31'1615.4
2017-Feb-15 13:33N 53°33' W 003°57'11 0.8
2017-Feb-14 23:31N 53°34' W 003°39'1717.2
2017-Feb-14 22:33N 53°32' W 003°11'7 7.4
2017-Feb-14 21:33N 53°27' W 003°01'0 0.4
2017-Feb-14 20:33N 53°27' W 003°01'0 0.0
2017-Feb-14 19:32N 53°27' W 003°01'0 0.0
2017-Feb-14 18:32N 53°27' W 003°01'0 0.0
2017-Feb-14 17:31N 53°27' W 003°01'0 0.4
2017-Feb-14 16:31N 53°27' W 003°01'7 7.0
2017-Feb-14 15:33N 53°32' W 003°09'1717.2
2017-Feb-14 14:33N 53°31' W 003°38'1817.7
2017-Feb-14 13:34N 53°34' W 004°07'  

Dump ship's entire track history